Greenwood, Maine
Current Conditions -  °F | °C
As of 6:22 PM on Wednesday 22 Oct 2014 (Local Time) from KBML Reporting Station
Light Rain Light Rain  
Wind Chill: 44°   Ceiling: 2700
Heat Index: 47°   Visibility: 10mi
Dew Point: 43°   Wind: 6mph
Humidity: 86%   Direction: 10°N
Pressure: 30.14"   Gusts: NA
Location:  44.4002°N, 70.7026°W
Report Text: KBML 222222Z AUTO 01005KT 10SM -RA BKN027 OVC032 08/06 A3014 RMK AO2 P0000 T00830061
Loading
Personal Weather Stations






























Interactive Weather Map
Tropical Storm Tracking
New forecast layout! Learn more

10-Day Weather Forecast

Advertisements
Track Severe Weather on mobile